createdAt,value
2018-01-12T00:01:39.188Z,4.20
2018-01-12T00:04:06.689Z,4.30
2018-01-12T00:06:34.944Z,4.40
2018-01-12T00:09:02.458Z,4.40
2018-01-12T00:11:29.949Z,4.30
2018-01-12T00:13:57.472Z,4.40
2018-01-12T00:16:25.010Z,4.30
2018-01-12T00:18:52.513Z,4.30
2018-01-12T00:21:20.010Z,4.20
2018-01-12T00:23:48.299Z,4.40
2018-01-12T00:26:15.794Z,4.40
2018-01-12T00:28:43.310Z,4.40
2018-01-12T00:31:11.588Z,4.10
2018-01-12T00:33:39.129Z,4.10
2018-01-12T00:36:06.723Z,4.00
2018-01-12T00:38:34.234Z,4.10
2018-01-12T00:41:01.730Z,4.10
2018-01-12T00:43:29.260Z,4.30
2018-01-12T00:45:56.759Z,4.50
2018-01-12T00:48:24.279Z,4.40
2018-01-12T00:50:52.552Z,4.00
2018-01-12T00:53:20.844Z,3.90
2018-01-12T00:55:49.111Z,3.70
2018-01-12T00:58:17.394Z,3.80
2018-01-12T01:00:45.645Z,4.00
2018-01-12T01:03:13.149Z,4.00
2018-01-12T01:05:40.642Z,4.00
2018-01-12T01:08:08.144Z,4.00
2018-01-12T01:10:36.498Z,4.10
2018-01-12T01:13:04.112Z,4.10
2018-01-12T01:15:31.635Z,3.80
2018-01-12T01:17:59.903Z,3.70
2018-01-12T01:20:28.187Z,3.50
2018-01-12T01:22:56.481Z,3.50
2018-01-12T01:25:24.042Z,3.50
2018-01-12T01:27:51.542Z,3.50
2018-01-12T01:30:19.065Z,3.50
2018-01-12T01:32:46.573Z,3.60
2018-01-12T01:35:14.091Z,3.60
2018-01-12T01:37:41.587Z,3.60
2018-01-12T01:40:09.098Z,3.70
2018-01-12T01:42:36.605Z,3.60
2018-01-12T01:45:04.904Z,3.90
2018-01-12T01:47:33.156Z,4.00
2018-01-12T01:50:01.437Z,3.60
2018-01-12T01:52:28.931Z,3.60
2018-01-12T01:54:56.422Z,3.50
2018-01-12T01:57:23.950Z,3.50
2018-01-12T01:59:51.440Z,3.50
2018-01-12T02:02:18.959Z,3.40
2018-01-12T02:04:47.213Z,3.60
2018-01-12T02:07:14.730Z,3.60
2018-01-12T02:09:42.226Z,3.80
2018-01-12T02:12:09.722Z,4.00
2018-01-12T02:14:37.240Z,4.00
2018-01-12T02:17:04.725Z,4.10
2018-01-12T02:19:33.001Z,4.00
2018-01-12T02:22:01.272Z,4.00
2018-01-12T02:24:29.577Z,4.00
2018-01-12T02:26:57.078Z,4.00
2018-01-12T02:29:24.580Z,4.10
2018-01-12T02:31:52.112Z,4.10
2018-01-12T02:34:20.365Z,4.00
2018-01-12T02:36:47.863Z,4.00
2018-01-12T02:39:15.382Z,4.00
2018-01-12T02:41:42.878Z,4.10
2018-01-12T02:44:10.387Z,4.20
2018-01-12T02:46:37.901Z,3.90
2018-01-12T02:49:05.403Z,3.80
2018-01-12T02:51:32.903Z,3.70
2018-01-12T02:54:01.181Z,4.00
2018-01-12T02:56:29.436Z,3.90
2018-01-12T02:58:56.948Z,3.90
2018-01-12T03:01:24.460Z,3.80
2018-01-12T03:03:51.965Z,3.80
2018-01-12T03:06:19.494Z,3.70
2018-01-12T03:08:46.995Z,3.70
2018-01-12T03:11:14.516Z,3.70
2018-01-12T03:13:42.006Z,3.80
2018-01-12T03:16:09.544Z,4.10
2018-01-12T03:18:37.089Z,4.10
2018-01-12T03:21:05.050Z,4.20
2018-01-12T03:23:33.325Z,4.00
2018-01-12T03:26:01.600Z,3.80
2018-01-12T03:28:29.896Z,3.80
2018-01-12T03:30:57.399Z,3.80
2018-01-12T03:33:24.925Z,3.80
2018-01-12T03:35:52.421Z,3.70
2018-01-12T03:38:19.930Z,3.80
2018-01-12T03:40:48.335Z,3.80
2018-01-12T03:43:15.845Z,3.70
2018-01-12T03:45:44.129Z,3.90
2018-01-12T03:48:11.644Z,3.90
2018-01-12T03:50:39.150Z,3.80
2018-01-12T03:53:06.666Z,3.80
2018-01-12T03:55:34.172Z,3.80
2018-01-12T03:58:01.703Z,3.80
2018-01-12T04:00:29.964Z,3.80
2018-01-12T04:02:57.457Z,3.70
2018-01-12T04:05:24.965Z,3.70
2018-01-12T04:07:52.483Z,3.70
2018-01-12T04:10:19.987Z,3.70
2018-01-12T04:12:47.477Z,3.70
2018-01-12T04:15:15.768Z,3.70
2018-01-12T04:17:43.288Z,3.70
2018-01-12T04:20:10.796Z,3.70
2018-01-12T04:22:38.307Z,3.80
2018-01-12T04:25:05.816Z,4.00
2018-01-12T04:27:33.356Z,4.00
2018-01-12T04:30:00.859Z,4.10
2018-01-12T04:32:28.362Z,3.90
2018-01-12T04:34:56.660Z,4.00
2018-01-12T04:37:24.162Z,4.00
2018-01-12T04:39:51.666Z,3.90
2018-01-12T04:42:19.189Z,3.90
2018-01-12T04:44:46.691Z,3.80
2018-01-12T04:47:14.203Z,3.80
2018-01-12T04:49:41.731Z,3.70
2018-01-12T04:52:09.225Z,3.70
2018-01-12T04:54:36.733Z,3.70
2018-01-12T04:57:04.246Z,3.70
2018-01-12T04:59:31.738Z,3.60
2018-01-12T05:01:59.275Z,3.60
2018-01-12T05:04:27.543Z,3.60
2018-01-12T05:06:55.052Z,3.60
2018-01-12T05:09:22.583Z,3.70
2018-01-12T05:11:50.092Z,3.80
2018-01-12T05:14:17.609Z,3.70
2018-01-12T05:16:45.137Z,3.70
2018-01-12T05:19:13.393Z,3.70
2018-01-12T05:21:41.820Z,3.70
2018-01-12T05:24:09.343Z,3.60
2018-01-12T05:26:36.837Z,3.70
2018-01-12T05:29:04.356Z,3.70
2018-01-12T05:31:31.854Z,3.60
2018-01-12T05:33:59.370Z,3.50
2018-01-12T05:36:26.879Z,3.50
2018-01-12T05:38:54.369Z,3.50
2018-01-12T05:41:21.891Z,3.50
2018-01-12T05:43:49.384Z,3.70
2018-01-12T05:46:16.949Z,3.80
2018-01-12T05:48:44.446Z,3.80
2018-01-12T05:51:12.701Z,3.90
2018-01-12T05:53:40.232Z,3.90
2018-01-12T05:56:07.740Z,3.80
2018-01-12T05:58:35.276Z,3.80
2018-01-12T06:01:15.414Z,3.70
2018-01-12T06:03:54.785Z,3.70
2018-01-12T06:06:23.083Z,3.60
2018-01-12T06:08:50.583Z,3.60
2018-01-12T06:11:18.074Z,3.60
2018-01-12T06:13:46.345Z,3.60
2018-01-12T06:16:14.619Z,3.70
2018-01-12T06:18:42.932Z,3.60
2018-01-12T06:21:10.444Z,3.60
2018-01-12T06:23:37.942Z,3.70
2018-01-12T06:26:05.454Z,3.70
2018-01-12T06:28:32.948Z,3.80
2018-01-12T06:31:00.484Z,3.80
2018-01-12T06:33:28.777Z,3.90
2018-01-12T06:35:57.035Z,4.00
2018-01-12T06:38:25.324Z,4.00
2018-01-12T06:40:53.592Z,3.90
2018-01-12T06:43:21.878Z,3.90
2018-01-12T06:45:50.156Z,3.90
2018-01-12T06:48:17.649Z,3.90
2018-01-12T06:50:45.167Z,4.10
2018-01-12T06:53:13.444Z,4.00
2018-01-12T06:55:41.749Z,3.90
2018-01-12T06:58:09.268Z,3.90
2018-01-12T07:00:37.539Z,3.90
2018-01-12T07:03:05.053Z,3.90
2018-01-12T07:05:32.545Z,3.90
2018-01-12T07:08:00.054Z,4.10
2018-01-12T07:10:27.588Z,3.90
2018-01-12T07:12:55.868Z,3.90
2018-01-12T07:15:23.396Z,3.90
2018-01-12T07:17:50.894Z,3.90
2018-01-12T07:20:30.378Z,4.00
2018-01-12T07:23:09.861Z,3.90
2018-01-12T07:25:38.161Z,4.20
2018-01-12T07:28:05.672Z,4.20
2018-01-12T07:30:33.179Z,4.10
2018-01-12T07:33:00.683Z,4.20
2018-01-12T07:35:29.809Z,4.00
2018-01-12T07:37:57.320Z,4.00
2018-01-12T07:40:24.809Z,4.00
2018-01-12T07:42:53.107Z,4.00
2018-01-12T07:45:20.610Z,4.00
2018-01-12T07:47:48.127Z,4.10
2018-01-12T07:50:15.629Z,4.00
2018-01-12T07:52:48.767Z,4.00
2018-01-12T07:55:17.035Z,3.90
2018-01-12T07:57:45.339Z,3.80
2018-01-12T08:00:12.852Z,3.80
2018-01-12T08:02:46.160Z,3.80
2018-01-12T08:05:14.417Z,3.80
2018-01-12T08:07:42.699Z,3.80
2018-01-12T08:10:10.225Z,3.80
2018-01-12T08:12:37.713Z,3.80
2018-01-12T08:15:05.230Z,3.90
2018-01-12T08:17:32.726Z,3.90
2018-01-12T08:20:00.237Z,4.00
2018-01-12T08:22:27.743Z,4.10
2018-01-12T08:24:55.276Z,4.10
2018-01-12T08:27:22.774Z,4.00
2018-01-12T08:29:51.067Z,4.00
2018-01-12T08:32:18.594Z,4.00
2018-01-12T08:34:46.176Z,4.00
2018-01-12T08:37:14.446Z,4.00
2018-01-12T08:39:42.726Z,4.00
2018-01-12T08:42:11.003Z,4.00
2018-01-12T08:44:39.340Z,4.00
2018-01-12T08:47:06.872Z,4.10
2018-01-12T08:49:34.365Z,4.10
2018-01-12T08:52:01.897Z,4.30
2018-01-12T08:54:29.412Z,4.30
2018-01-12T08:56:57.695Z,4.20
2018-01-12T08:59:25.192Z,4.20
2018-01-12T09:01:52.685Z,4.20
2018-01-12T09:04:20.233Z,4.20
2018-01-12T09:06:47.725Z,4.10
2018-01-12T09:09:15.985Z,4.10
2018-01-12T09:11:44.271Z,4.20
2018-01-12T09:14:24.373Z,4.20
2018-01-12T09:16:51.898Z,4.20
2018-01-12T09:19:27.368Z,4.20
2018-01-12T09:21:56.722Z,4.10
2018-01-12T09:24:24.981Z,4.20
2018-01-12T09:26:54.004Z,4.20
2018-01-12T09:29:21.517Z,4.20
2018-01-12T09:31:50.843Z,4.30
2018-01-12T09:34:30.281Z,4.30
2018-01-12T09:36:58.568Z,4.30
2018-01-12T09:39:38.633Z,4.50
2018-01-12T09:42:06.549Z,4.50
2018-01-12T09:44:34.180Z,4.50
2018-01-12T09:47:13.564Z,4.50
2018-01-12T09:49:50.081Z,4.50
2018-01-12T09:52:17.584Z,4.50
2018-01-12T09:54:45.099Z,4.50
2018-01-12T09:57:12.634Z,4.50
2018-01-12T09:59:43.457Z,4.50
2018-01-12T10:02:11.752Z,4.50
2018-01-12T10:04:40.045Z,4.40
2018-01-12T10:07:16.357Z,4.40
2018-01-12T10:09:48.887Z,4.40
2018-01-12T10:12:16.434Z,4.40
2018-01-12T10:14:43.947Z,4.40
2018-01-12T10:17:11.453Z,4.40
2018-01-12T10:22:41.842Z,4.30
2018-01-12T10:25:09.349Z,4.30
2018-01-12T10:27:37.625Z,4.30
2018-01-12T10:30:17.895Z,4.30
2018-01-12T10:32:45.397Z,4.30
2018-01-12T10:35:18.705Z,4.20
2018-01-12T10:37:46.197Z,4.20
2018-01-12T10:40:25.640Z,4.30
2018-01-12T10:42:53.148Z,4.30
2018-01-12T10:45:20.632Z,4.30
2018-01-12T10:47:51.663Z,4.30
2018-01-12T10:50:22.958Z,4.30
2018-01-12T10:52:50.452Z,4.20
2018-01-12T10:55:17.982Z,4.40
2018-01-12T10:57:45.473Z,4.50
2018-01-12T11:00:24.980Z,4.40
2018-01-12T11:02:52.487Z,4.40
2018-01-12T11:05:20.787Z,4.40
2018-01-12T11:07:48.305Z,4.40
2018-01-12T11:10:15.802Z,4.40
2018-01-12T11:12:43.319Z,4.40
2018-01-12T11:15:10.827Z,4.30
2018-01-12T11:17:38.347Z,4.40
2018-01-12T11:20:05.856Z,4.50
2018-01-12T11:22:33.348Z,4.50
2018-01-12T11:25:00.865Z,4.40
2018-01-12T11:27:28.364Z,4.40
2018-01-12T11:29:55.857Z,4.40
2018-01-12T11:32:24.176Z,4.50
2018-01-12T11:34:51.672Z,4.50
2018-01-12T11:37:19.941Z,4.50
2018-01-12T11:39:47.447Z,4.50
2018-01-12T11:42:14.975Z,4.60
2018-01-12T11:44:43.235Z,4.50
2018-01-12T11:47:10.830Z,4.50
2018-01-12T11:49:38.349Z,4.50
2018-01-12T11:52:05.855Z,4.50
2018-01-12T11:54:33.367Z,4.50
2018-01-12T11:57:00.900Z,4.50
2018-01-12T11:59:28.417Z,4.50
2018-01-12T12:01:55.937Z,4.70
2018-01-12T12:04:23.433Z,4.80
2018-01-12T12:06:50.943Z,4.60
2018-01-12T12:09:18.453Z,4.60
2018-01-12T12:11:45.954Z,4.60
2018-01-12T12:14:13.579Z,4.50
2018-01-12T12:16:41.079Z,4.50
2018-01-12T12:19:08.587Z,4.50
2018-01-12T12:21:36.115Z,4.50
2018-01-12T12:24:03.638Z,4.40
2018-01-12T12:26:31.261Z,4.40
2018-01-12T12:28:59.536Z,4.40
2018-01-12T12:31:27.800Z,4.40
2018-01-12T12:33:56.101Z,4.40
2018-01-12T12:36:23.615Z,4.40
2018-01-12T12:38:51.105Z,4.40
2018-01-12T12:41:19.407Z,4.50
2018-01-12T12:43:46.915Z,4.50
2018-01-12T12:46:14.405Z,4.50
2018-01-12T12:48:41.950Z,4.50
2018-01-12T12:51:10.228Z,4.50
2018-01-12T12:53:38.489Z,4.50
2018-01-12T12:56:06.770Z,4.50
2018-01-12T12:58:35.025Z,4.50
2018-01-12T13:01:02.538Z,4.50
2018-01-12T13:03:30.054Z,4.50
2018-01-12T13:05:57.563Z,4.50
2018-01-12T13:08:25.067Z,4.50
2018-01-12T13:10:52.676Z,4.50
2018-01-12T13:13:20.188Z,4.50
2018-01-12T13:15:47.692Z,4.80
2018-01-12T13:18:15.210Z,5.00
2018-01-12T13:20:42.714Z,5.00
2018-01-12T13:23:10.235Z,4.80
2018-01-12T13:25:38.497Z,4.70
2018-01-12T13:28:06.027Z,4.70
2018-01-12T13:30:33.521Z,4.70
2018-01-12T13:33:01.055Z,4.90
2018-01-12T13:35:28.550Z,4.70
2018-01-12T13:37:56.822Z,4.70
2018-01-12T13:40:25.111Z,4.70
2018-01-12T13:42:53.390Z,4.60
2018-01-12T13:45:20.900Z,4.60
2018-01-12T13:47:48.408Z,4.60
2018-01-12T13:50:15.916Z,4.60
2018-01-12T13:52:43.433Z,4.60
2018-01-12T13:55:10.994Z,4.70
2018-01-12T13:57:38.526Z,4.70
2018-01-12T14:00:06.804Z,4.70
2018-01-12T14:02:35.061Z,4.80
2018-01-12T14:05:02.604Z,4.70
2018-01-12T14:07:30.120Z,4.80
2018-01-12T14:09:57.613Z,4.90
2018-01-12T14:12:25.131Z,5.10
2018-01-12T14:14:52.636Z,5.00
2018-01-12T14:17:20.901Z,5.10
2018-01-12T14:19:48.440Z,5.10
2018-01-12T14:22:15.956Z,5.30
2018-01-12T14:24:43.448Z,5.20
2018-01-12T14:27:10.969Z,5.20
2018-01-12T14:29:38.470Z,5.10
2018-01-12T14:32:05.989Z,5.30
2018-01-12T14:34:33.511Z,5.40
2018-01-12T14:37:01.024Z,5.60
2018-01-12T14:39:29.299Z,5.80
2018-01-12T14:41:57.612Z,5.90
2018-01-12T14:44:25.132Z,5.90
2018-01-12T14:46:53.415Z,5.90
2018-01-12T14:49:21.719Z,5.90
2018-01-12T14:51:49.231Z,5.80
2018-01-12T14:54:16.752Z,5.40
2018-01-12T14:56:44.282Z,5.20
2018-01-12T14:59:11.795Z,5.10
2018-01-12T15:01:39.308Z,5.00
2018-01-12T15:04:06.858Z,5.00
2018-01-12T15:06:35.137Z,4.80
2018-01-12T15:09:02.633Z,4.80
2018-01-12T15:11:30.153Z,4.80
2018-01-12T15:13:57.646Z,4.90
2018-01-12T15:16:25.166Z,4.80
2018-01-12T15:18:52.660Z,4.80
2018-01-12T15:21:20.172Z,4.80
2018-01-12T15:23:48.468Z,5.00
2018-01-12T15:26:15.966Z,5.00
2018-01-12T15:28:43.479Z,5.00
2018-01-12T15:31:11.003Z,4.90
2018-01-12T15:33:38.498Z,4.90
2018-01-12T15:36:06.040Z,4.80
2018-01-12T15:38:34.316Z,4.70
2018-01-12T15:41:02.591Z,4.80
2018-01-12T15:43:30.874Z,4.70
2018-01-12T15:45:59.128Z,4.70
2018-01-12T15:48:26.645Z,4.70
2018-01-12T15:50:54.150Z,4.70
2018-01-12T15:53:21.665Z,4.70
2018-01-12T15:55:49.206Z,4.70
2018-01-12T15:58:16.723Z,4.80
2018-01-12T16:00:44.222Z,4.80
2018-01-12T16:03:11.755Z,4.70
2018-01-12T16:05:40.032Z,4.70
2018-01-12T16:08:08.311Z,4.70
2018-01-12T16:10:36.601Z,4.70
2018-01-12T16:13:04.103Z,4.70
2018-01-12T16:15:31.596Z,4.60
2018-01-12T16:17:59.895Z,4.60
2018-01-12T16:20:27.407Z,4.60
2018-01-12T16:22:54.914Z,4.60
2018-01-12T16:25:22.413Z,4.60
2018-01-12T16:27:49.932Z,4.60
2018-01-12T16:30:17.452Z,4.60
2018-01-12T16:32:44.950Z,4.50
2018-01-12T16:35:12.474Z,4.60
2018-01-12T16:37:39.986Z,4.60
2018-01-12T16:40:07.515Z,4.60
2018-01-12T16:42:35.769Z,4.60
2018-01-12T16:45:03.279Z,4.60
2018-01-12T16:47:30.811Z,4.60
2018-01-12T16:49:58.318Z,4.60
2018-01-12T16:52:25.877Z,4.60
2018-01-12T16:54:53.428Z,4.60
2018-01-12T16:57:20.944Z,4.70
2018-01-12T16:59:48.479Z,4.60
2018-01-12T17:02:15.974Z,4.60
2018-01-12T17:04:43.469Z,4.60
2018-01-12T17:07:10.992Z,4.60
2018-01-12T17:09:38.512Z,4.60
2018-01-12T17:12:06.797Z,4.60
2018-01-12T17:14:34.303Z,4.60
2018-01-12T17:17:01.792Z,4.60
2018-01-12T17:19:29.307Z,4.60
2018-01-12T17:21:56.813Z,4.60
2018-01-12T17:24:24.329Z,4.60
2018-01-12T17:26:51.826Z,4.60
2018-01-12T17:29:19.339Z,4.60
2018-01-12T17:31:46.856Z,4.60
2018-01-12T17:34:14.383Z,4.60
2018-01-12T17:36:41.896Z,4.60
2018-01-12T17:39:09.430Z,4.60
2018-01-12T17:41:36.948Z,4.60
2018-01-12T17:44:04.460Z,4.80
2018-01-12T17:46:32.756Z,5.00
2018-01-12T17:49:00.262Z,4.90
2018-01-12T17:51:27.805Z,5.00
2018-01-12T17:53:55.329Z,5.20
2018-01-12T17:56:22.834Z,5.20
2018-01-12T17:58:50.349Z,5.40
2018-01-12T18:01:17.873Z,5.50
2018-01-12T18:03:45.388Z,5.50
2018-01-12T18:06:12.902Z,5.40
2018-01-12T18:08:41.208Z,5.70
2018-01-12T18:11:08.746Z,5.70
2018-01-12T18:13:37.006Z,5.90
2018-01-12T18:16:05.297Z,6.00
2018-01-12T18:18:33.557Z,5.90
2018-01-12T18:21:01.089Z,5.80
2018-01-12T18:23:28.608Z,5.60
2018-01-12T18:25:56.119Z,5.80
2018-01-12T18:28:23.636Z,5.70
2018-01-12T18:30:51.185Z,5.80
2018-01-12T18:33:18.716Z,5.80
2018-01-12T18:35:46.993Z,5.90
2018-01-12T18:38:15.285Z,5.80
2018-01-12T18:40:42.796Z,5.80
2018-01-12T18:43:10.324Z,5.70
2018-01-12T18:45:37.859Z,5.50
2018-01-12T18:48:05.381Z,5.70
2018-01-12T18:50:32.896Z,5.50
2018-01-12T18:53:00.421Z,5.50
2018-01-12T18:55:28.716Z,5.50
2018-01-12T18:57:56.229Z,5.50
2018-01-12T19:00:23.772Z,5.60
2018-01-12T19:02:51.292Z,5.70
2018-01-12T19:05:18.810Z,5.70
2018-01-12T19:07:46.348Z,5.60
2018-01-12T19:10:13.871Z,5.70
2018-01-12T19:12:41.374Z,5.70
2018-01-12T19:15:08.899Z,5.80
2018-01-12T19:17:36.416Z,5.70
2018-01-12T19:20:04.696Z,5.80
2018-01-12T19:22:33.001Z,5.60
2018-01-12T19:25:00.506Z,5.60
2018-01-12T19:27:28.005Z,5.70
2018-01-12T19:29:55.533Z,5.60
2018-01-12T19:32:23.038Z,5.40
2018-01-12T19:34:50.540Z,5.60
2018-01-12T19:37:18.071Z,5.60
2018-01-12T19:39:46.352Z,5.50
2018-01-12T19:42:13.853Z,5.50
2018-01-12T19:44:42.172Z,5.50
2018-01-12T19:47:09.697Z,5.50
2018-01-12T19:49:37.961Z,5.00
2018-01-12T19:52:06.260Z,4.80
2018-01-12T19:54:33.754Z,4.70
2018-01-12T19:57:01.253Z,4.60
2018-01-12T19:59:28.765Z,4.60
2018-01-12T20:01:56.285Z,4.60
2018-01-12T20:04:24.695Z,5.00
2018-01-12T20:06:52.278Z,4.90
2018-01-12T20:09:19.777Z,5.00
2018-01-12T20:11:48.063Z,5.30
2018-01-12T20:14:15.560Z,5.30
2018-01-12T20:16:43.080Z,5.30
2018-01-12T20:19:10.578Z,5.50
2018-01-12T20:21:38.100Z,5.50
2018-01-12T20:24:05.601Z,5.40
2018-01-12T20:26:33.109Z,5.20
2018-01-12T20:29:01.406Z,4.80
2018-01-12T20:31:28.926Z,4.70
2018-01-12T20:33:57.197Z,5.20
2018-01-12T20:36:24.726Z,5.20
2018-01-12T20:38:52.247Z,5.10
2018-01-12T20:41:19.770Z,4.80
2018-01-12T20:43:47.294Z,4.60
2018-01-12T20:46:14.785Z,4.50
2018-01-12T20:48:42.299Z,4.40
2018-01-12T20:51:09.822Z,4.50
2018-01-12T20:53:38.108Z,4.60
2018-01-12T20:56:06.367Z,4.70
2018-01-12T20:58:34.659Z,4.60
2018-01-12T21:01:02.157Z,4.60
2018-01-12T21:03:29.684Z,4.80
2018-01-12T21:05:57.193Z,4.80
2018-01-12T21:08:24.726Z,4.80
2018-01-12T21:10:52.220Z,4.90
2018-01-12T21:13:19.737Z,4.80
2018-01-12T21:15:49.085Z,4.60
2018-01-12T21:18:16.581Z,4.90
2018-01-12T21:20:44.099Z,4.90
2018-01-12T21:23:11.616Z,4.90
2018-01-12T21:25:39.132Z,4.90
2018-01-12T21:28:07.409Z,4.60
2018-01-12T21:30:35.716Z,4.40
2018-01-12T21:33:03.228Z,4.40
2018-01-12T21:35:30.729Z,4.30
2018-01-12T21:37:58.261Z,4.30
2018-01-12T21:40:26.522Z,4.60
2018-01-12T21:42:54.034Z,4.60
2018-01-12T21:45:21.529Z,4.70
2018-01-12T21:47:49.068Z,4.40
2018-01-12T21:50:16.565Z,4.30
2018-01-12T21:52:44.092Z,4.20
2018-01-12T21:55:11.602Z,4.10
2018-01-12T21:57:39.135Z,4.10
2018-01-12T22:00:06.659Z,4.10
2018-01-12T22:02:34.186Z,4.00
2018-01-12T22:05:01.704Z,4.00
2018-01-12T22:07:29.188Z,4.10
2018-01-12T22:09:57.469Z,4.00
2018-01-12T22:12:25.733Z,3.90
2018-01-12T22:14:54.012Z,4.20
2018-01-12T22:17:22.289Z,4.40
2018-01-12T22:19:50.545Z,4.30
2018-01-12T22:22:18.080Z,4.30
2018-01-12T22:24:46.342Z,4.10
2018-01-12T22:27:13.832Z,4.10
2018-01-12T22:29:41.375Z,4.20
2018-01-12T22:32:08.889Z,4.20
2018-01-12T22:34:36.412Z,4.30
2018-01-12T22:37:03.929Z,4.30
2018-01-12T22:39:31.434Z,4.30
2018-01-12T22:41:58.968Z,4.10
2018-01-12T22:44:26.485Z,4.00
2018-01-12T22:46:54.042Z,4.00
2018-01-12T22:49:21.582Z,4.20
2018-01-12T22:51:49.838Z,4.10
2018-01-12T22:54:17.352Z,4.10
2018-01-12T22:56:44.879Z,4.20
2018-01-12T22:59:13.176Z,4.40
2018-01-12T23:01:40.696Z,4.40
2018-01-12T23:04:08.982Z,4.30
2018-01-12T23:06:37.280Z,4.30
2018-01-12T23:09:04.820Z,4.30
2018-01-12T23:11:33.081Z,4.20
2018-01-12T23:14:00.578Z,4.20
2018-01-12T23:16:28.102Z,4.20
2018-01-12T23:18:56.357Z,4.20
2018-01-12T23:21:23.876Z,4.20
2018-01-12T23:23:51.397Z,4.50
2018-01-12T23:26:19.652Z,4.50
2018-01-12T23:28:47.167Z,4.50
2018-01-12T23:31:14.676Z,4.30
2018-01-12T23:33:42.174Z,4.50
2018-01-12T23:36:09.689Z,4.60
2018-01-12T23:38:37.203Z,4.30
2018-01-12T23:41:04.702Z,4.20
2018-01-12T23:43:32.231Z,4.30
2018-01-12T23:45:59.716Z,4.10
2018-01-12T23:48:27.228Z,4.00
2018-01-12T23:50:54.748Z,4.10
2018-01-12T23:53:23.087Z,4.30
2018-01-12T23:55:50.586Z,4.30
2018-01-12T23:58:18.094Z,4.40
